sensor_id;sensor_type;location;lat;lon;timestamp;pressure;altitude;pressure_sealevel;temperature
34310;BMP280;61664;48.112;11.662;2023-12-20T00:02:17;95488.97;;;9.97
34310;BMP280;61664;48.112;11.662;2023-12-20T00:04:44;95484.38;;;9.98
34310;BMP280;61664;48.112;11.662;2023-12-20T00:07:11;95479.34;;;9.91
34310;BMP280;61664;48.112;11.662;2023-12-20T00:09:38;95496.44;;;9.93
34310;BMP280;61664;48.112;11.662;2023-12-20T00:12:06;95484.28;;;9.92
34310;BMP280;61664;48.112;11.662;2023-12-20T00:14:32;95480.88;;;9.92
34310;BMP280;61664;48.112;11.662;2023-12-20T00:16:59;95481.59;;;9.92
34310;BMP280;61664;48.112;11.662;2023-12-20T00:19:26;95467.06;;;9.93
34310;BMP280;61664;48.112;11.662;2023-12-20T00:21:53;95465.59;;;9.92
34310;BMP280;61664;48.112;11.662;2023-12-20T00:24:20;95457.25;;;9.90
34310;BMP280;61664;48.112;11.662;2023-12-20T00:26:47;95450.31;;;9.93
34310;BMP280;61664;48.112;11.662;2023-12-20T00:29:14;95436.38;;;9.79
34310;BMP280;61664;48.112;11.662;2023-12-20T00:31:41;95445.09;;;9.89
34310;BMP280;61664;48.112;11.662;2023-12-20T00:34:08;95444.78;;;9.96
34310;BMP280;61664;48.112;11.662;2023-12-20T00:36:35;95425.56;;;9.92
34310;BMP280;61664;48.112;11.662;2023-12-20T00:39:02;95432.03;;;10.00
34310;BMP280;61664;48.112;11.662;2023-12-20T00:41:30;95428.47;;;10.03
34310;BMP280;61664;48.112;11.662;2023-12-20T00:43:57;95418.84;;;9.97
34310;BMP280;61664;48.112;11.662;2023-12-20T00:46:24;95434.09;;;10.05
34310;BMP280;61664;48.112;11.662;2023-12-20T00:48:51;95430.69;;;10.05
34310;BMP280;61664;48.112;11.662;2023-12-20T00:51:18;95417.94;;;10.00
34310;BMP280;61664;48.112;11.662;2023-12-20T00:53:45;95418.53;;;10.04
34310;BMP280;61664;48.112;11.662;2023-12-20T00:56:15;95417.63;;;10.07
34310;BMP280;61664;48.112;11.662;2023-12-20T00:58:42;95419.69;;;10.12
34310;BMP280;61664;48.112;11.662;2023-12-20T01:01:09;95412.41;;;10.12
34310;BMP280;61664;48.112;11.662;2023-12-20T01:03:36;95398.31;;;10.12
34310;BMP280;61664;48.112;11.662;2023-12-20T01:06:04;95406.97;;;10.31
34310;BMP280;61664;48.112;11.662;2023-12-20T01:08:32;95406.09;;;10.34
34310;BMP280;61664;48.112;11.662;2023-12-20T01:10:58;95394.66;;;10.33
34310;BMP280;61664;48.112;11.662;2023-12-20T01:13:25;95386.28;;;10.40
34310;BMP280;61664;48.112;11.662;2023-12-20T01:15:52;95375.06;;;10.36
34310;BMP280;61664;48.112;11.662;2023-12-20T01:18:19;95380.81;;;10.44
34310;BMP280;61664;48.112;11.662;2023-12-20T01:20:46;95381.56;;;10.44
34310;BMP280;61664;48.112;11.662;2023-12-20T01:23:13;95385.50;;;10.49
34310;BMP280;61664;48.112;11.662;2023-12-20T01:25:40;95385.81;;;10.51
34310;BMP280;61664;48.112;11.662;2023-12-20T01:28:07;95372.59;;;10.47
34310;BMP280;61664;48.112;11.662;2023-12-20T01:30:34;95378.69;;;10.48
34310;BMP280;61664;48.112;11.662;2023-12-20T01:33:01;95375.69;;;10.55
34310;BMP280;61664;48.112;11.662;2023-12-20T01:35:28;95362.59;;;10.57
34310;BMP280;61664;48.112;11.662;2023-12-20T01:37:55;95365.56;;;10.59
34310;BMP280;61664;48.112;11.662;2023-12-20T01:40:23;95365.56;;;10.59
34310;BMP280;61664;48.112;11.662;2023-12-20T01:43:18;95360.09;;;10.53
34310;BMP280;61664;48.112;11.662;2023-12-20T01:45:46;95356.97;;;10.55
34310;BMP280;61664;48.112;11.662;2023-12-20T01:48:15;95362.59;;;10.57
34310;BMP280;61664;48.112;11.662;2023-12-20T01:50:45;95360.38;;;10.56
34310;BMP280;61664;48.112;11.662;2023-12-20T01:53:13;95347.31;;;10.58
34310;BMP280;61664;48.112;11.662;2023-12-20T01:55:41;95337.38;;;10.58
34310;BMP280;61664;48.112;11.662;2023-12-20T01:58:09;95349.34;;;10.63
34310;BMP280;61664;48.112;11.662;2023-12-20T02:00:38;95342.81;;;10.64
34310;BMP280;61664;48.112;11.662;2023-12-20T02:03:05;95345.94;;;10.62
34310;BMP280;61664;48.112;11.662;2023-12-20T02:05:35;95333.50;;;10.59
34310;BMP280;61664;48.112;11.662;2023-12-20T02:08:03;95326.84;;;10.54
34310;BMP280;61664;48.112;11.662;2023-12-20T02:10:32;95321.63;;;10.60
34310;BMP280;61664;48.112;11.662;2023-12-20T02:12:59;95296.47;;;10.52
34310;BMP280;61664;48.112;11.662;2023-12-20T02:15:26;95300.88;;;10.55
34310;BMP280;61664;48.112;11.662;2023-12-20T02:17:54;95294.06;;;10.54
34310;BMP280;61664;48.112;11.662;2023-12-20T02:20:21;95300.53;;;10.62
34310;BMP280;61664;48.112;11.662;2023-12-20T02:22:48;95301.53;;;10.65
34310;BMP280;61664;48.112;11.662;2023-12-20T02:25:15;95298.13;;;10.64
34310;BMP280;61664;48.112;11.662;2023-12-20T02:27:42;95293.75;;;10.61
34310;BMP280;61664;48.112;11.662;2023-12-20T02:30:10;95293.06;;;10.66
34310;BMP280;61664;48.112;11.662;2023-12-20T02:32:38;95300.34;;;10.66
34310;BMP280;61664;48.112;11.662;2023-12-20T02:35:05;95300.72;;;10.73
34310;BMP280;61664;48.112;11.662;2023-12-20T02:37:33;95302.94;;;10.75
34310;BMP280;61664;48.112;11.662;2023-12-20T02:40:01;95301.84;;;10.81
34310;BMP280;61664;48.112;11.662;2023-12-20T02:42:28;95299.47;;;10.83
34310;BMP280;61664;48.112;11.662;2023-12-20T02:44:55;95298.00;;;10.82
34310;BMP280;61664;48.112;11.662;2023-12-20T02:47:21;95291.06;;;10.91
34310;BMP280;61664;48.112;11.662;2023-12-20T02:49:49;95288.94;;;10.95
34310;BMP280;61664;48.112;11.662;2023-12-20T02:52:16;95282.16;;;10.94
34310;BMP280;61664;48.112;11.662;2023-12-20T02:54:43;95280.47;;;10.96
34310;BMP280;61664;48.112;11.662;2023-12-20T02:57:10;95280.28;;;11.00
34310;BMP280;61664;48.112;11.662;2023-12-20T02:59:37;95281.22;;;10.97
34310;BMP280;61664;48.112;11.662;2023-12-20T03:02:04;95272.00;;;10.98
34310;BMP280;61664;48.112;11.662;2023-12-20T03:04:31;95273.13;;;10.91
34310;BMP280;61664;48.112;11.662;2023-12-20T03:06:58;95275.84;;;10.97
34310;BMP280;61664;48.112;11.662;2023-12-20T03:09:25;95273.19;;;10.97
34310;BMP280;61664;48.112;11.662;2023-12-20T03:11:52;95274.38;;;10.96
34310;BMP280;61664;48.112;11.662;2023-12-20T03:14:19;95270.88;;;10.90
34310;BMP280;61664;48.112;11.662;2023-12-20T03:16:55;95281.47;;;10.99
34310;BMP280;61664;48.112;11.662;2023-12-20T03:19:25;95288.41;;;11.05
34310;BMP280;61664;48.112;11.662;2023-12-20T03:21:53;95285.00;;;11.05
34310;BMP280;61664;48.112;11.662;2023-12-20T03:24:20;95273.28;;;11.02
34310;BMP280;61664;48.112;11.662;2023-12-20T03:26:47;95273.38;;;11.08
34310;BMP280;61664;48.112;11.662;2023-12-20T03:29:14;95275.13;;;11.11
34310;BMP280;61664;48.112;11.662;2023-12-20T03:31:41;95277.03;;;11.10
34310;BMP280;61664;48.112;11.662;2023-12-20T03:34:08;95281.94;;;11.12
34310;BMP280;61664;48.112;11.662;2023-12-20T03:36:35;95284.69;;;11.17
34310;BMP280;61664;48.112;11.662;2023-12-20T03:39:02;95286.91;;;11.19
34310;BMP280;61664;48.112;11.662;2023-12-20T03:41:29;95292.72;;;11.17
34310;BMP280;61664;48.112;11.662;2023-12-20T03:43:56;95297.59;;;11.19
34310;BMP280;61664;48.112;11.662;2023-12-20T03:46:23;95292.66;;;11.12
34310;BMP280;61664;48.112;11.662;2023-12-20T03:48:50;95300.94;;;11.14
34310;BMP280;61664;48.112;11.662;2023-12-20T03:51:17;95307.03;;;11.14
34310;BMP280;61664;48.112;11.662;2023-12-20T03:53:44;95307.41;;;11.07
34310;BMP280;61664;48.112;11.662;2023-12-20T03:56:10;95332.38;;;11.19
34310;BMP280;61664;48.112;11.662;2023-12-20T03:58:37;95318.66;;;11.11
34310;BMP280;61664;48.112;11.662;2023-12-20T04:01:10;95324.72;;;11.12
34310;BMP280;61664;48.112;11.662;2023-12-20T04:03:39;95324.19;;;11.08
34310;BMP280;61664;48.112;11.662;2023-12-20T04:06:07;95333.19;;;11.10
34310;BMP280;61664;48.112;11.662;2023-12-20T04:08:34;95336.06;;;11.07
34310;BMP280;61664;48.112;11.662;2023-12-20T04:11:01;95326.94;;;10.99
34310;BMP280;61664;48.112;11.662;2023-12-20T04:13:28;95331.25;;;10.96
34310;BMP280;61664;48.112;11.662;2023-12-20T04:15:55;95330.97;;;10.94
34310;BMP280;61664;48.112;11.662;2023-12-20T04:18:21;95331.16;;;10.91
34310;BMP280;61664;48.112;11.662;2023-12-20T04:20:49;95340.38;;;10.90
34310;BMP280;61664;48.112;11.662;2023-12-20T04:23:16;95327.06;;;10.80
34310;BMP280;61664;48.112;11.662;2023-12-20T04:25:43;95332.44;;;10.80
34310;BMP280;61664;48.112;11.662;2023-12-20T04:28:10;95337.22;;;10.76
34310;BMP280;61664;48.112;11.662;2023-12-20T04:30:37;95326.50;;;10.62
34310;BMP280;61664;48.112;11.662;2023-12-20T04:33:04;95311.66;;;10.61
34310;BMP280;61664;48.112;11.662;2023-12-20T04:35:31;95324.84;;;10.64
34310;BMP280;61664;48.112;11.662;2023-12-20T04:37:58;95332.59;;;10.62
34310;BMP280;61664;48.112;11.662;2023-12-20T04:40:25;95306.84;;;10.50
34310;BMP280;61664;48.112;11.662;2023-12-20T04:42:52;95314.97;;;10.56
34310;BMP280;61664;48.112;11.662;2023-12-20T04:45:18;95314.59;;;10.48
34310;BMP280;61664;48.112;11.662;2023-12-20T04:47:46;95334.75;;;10.49
34310;BMP280;61664;48.112;11.662;2023-12-20T04:50:14;95337.13;;;10.47
34310;BMP280;61664;48.112;11.662;2023-12-20T04:52:42;95336.16;;;10.44
34310;BMP280;61664;48.112;11.662;2023-12-20T04:55:09;95337.78;;;10.42
34310;BMP280;61664;48.112;11.662;2023-12-20T04:57:36;95335.66;;;10.46
34310;BMP280;61664;48.112;11.662;2023-12-20T05:00:03;95353.16;;;10.47
34310;BMP280;61664;48.112;11.662;2023-12-20T05:02:31;95365.03;;;10.46
34310;BMP280;61664;48.112;11.662;2023-12-20T05:04:58;95343.19;;;10.33
34310;BMP280;61664;48.112;11.662;2023-12-20T05:07:25;95357.34;;;10.24
34310;BMP280;61664;48.112;11.662;2023-12-20T05:09:52;95365.72;;;10.08
34310;BMP280;61664;48.112;11.662;2023-12-20T05:12:19;95385.53;;;9.92
34310;BMP280;61664;48.112;11.662;2023-12-20T05:14:46;95373.56;;;9.69
34310;BMP280;61664;48.112;11.662;2023-12-20T05:17:13;95382.66;;;9.63
34310;BMP280;61664;48.112;11.662;2023-12-20T05:19:40;95364.59;;;9.48
34310;BMP280;61664;48.112;11.662;2023-12-20T05:22:07;95381.94;;;9.44
34310;BMP280;61664;48.112;11.662;2023-12-20T05:24:34;95371.75;;;9.33
34310;BMP280;61664;48.112;11.662;2023-12-20T05:27:01;95391.28;;;9.39
34310;BMP280;61664;48.112;11.662;2023-12-20T05:29:28;95382.28;;;9.28
34310;BMP280;61664;48.112;11.662;2023-12-20T05:31:55;95396.66;;;9.21
34310;BMP280;61664;48.112;11.662;2023-12-20T05:34:22;95382.44;;;9.06
34310;BMP280;61664;48.112;11.662;2023-12-20T05:36:49;95408.06;;;9.03
34310;BMP280;61664;48.112;11.662;2023-12-20T05:39:16;95408.78;;;8.95
34310;BMP280;61664;48.112;11.662;2023-12-20T05:41:43;95405.53;;;8.81
34310;BMP280;61664;48.112;11.662;2023-12-20T05:44:09;95406.72;;;8.71
34310;BMP280;61664;48.112;11.662;2023-12-20T05:46:37;95411.41;;;8.67
34310;BMP280;61664;48.112;11.662;2023-12-20T05:49:04;95421.50;;;8.63
34310;BMP280;61664;48.112;11.662;2023-12-20T05:51:31;95424.72;;;8.58
34310;BMP280;61664;48.112;11.662;2023-12-20T05:53:59;95426.06;;;8.53
34310;BMP280;61664;48.112;11.662;2023-12-20T05:56:26;95426.63;;;8.48
34310;BMP280;61664;48.112;11.662;2023-12-20T05:58:53;95432.06;;;8.45
34310;BMP280;61664;48.112;11.662;2023-12-20T06:01:20;95421.84;;;8.34
34310;BMP280;61664;48.112;11.662;2023-12-20T06:03:47;95414.72;;;8.22
34310;BMP280;61664;48.112;11.662;2023-12-20T06:06:14;95433.50;;;8.28
34310;BMP280;61664;48.112;11.662;2023-12-20T06:08:43;95432.91;;;8.23
34310;BMP280;61664;48.112;11.662;2023-12-20T06:11:11;95433.59;;;8.15
34310;BMP280;61664;48.112;11.662;2023-12-20T06:13:38;95437.88;;;8.12
34310;BMP280;61664;48.112;11.662;2023-12-20T06:16:05;95443.63;;;8.11
34310;BMP280;61664;48.112;11.662;2023-12-20T06:18:34;95443.06;;;8.16
34310;BMP280;61664;48.112;11.662;2023-12-20T06:21:01;95450.00;;;8.13
34310;BMP280;61664;48.112;11.662;2023-12-20T06:23:29;95457.72;;;8.11
34310;BMP280;61664;48.112;11.662;2023-12-20T06:25:56;95464.19;;;8.10
34310;BMP280;61664;48.112;11.662;2023-12-20T06:28:23;95454.84;;;8.06
34310;BMP280;61664;48.112;11.662;2023-12-20T06:30:50;95461.44;;;7.92
34310;BMP280;61664;48.112;11.662;2023-12-20T06:33:20;95461.13;;;7.90
34310;BMP280;61664;48.112;11.662;2023-12-20T06:35:49;95462.84;;;7.84
34310;BMP280;61664;48.112;11.662;2023-12-20T06:38:18;95473.50;;;7.84
34310;BMP280;61664;48.112;11.662;2023-12-20T06:40:45;95477.16;;;7.77
34310;BMP280;61664;48.112;11.662;2023-12-20T06:43:13;95475.31;;;7.65
34310;BMP280;61664;48.112;11.662;2023-12-20T06:45:58;95490.94;;;7.63
34310;BMP280;61664;48.112;11.662;2023-12-20T06:48:26;95506.47;;;7.65
34310;BMP280;61664;48.112;11.662;2023-12-20T06:50:54;95494.44;;;7.60
34310;BMP280;61664;48.112;11.662;2023-12-20T06:53:21;95500.19;;;7.58
34310;BMP280;61664;48.112;11.662;2023-12-20T06:55:47;95504.34;;;7.59
34310;BMP280;61664;48.112;11.662;2023-12-20T06:58:14;95501.09;;;7.55
34310;BMP280;61664;48.112;11.662;2023-12-20T07:00:41;95500.34;;;7.55
34310;BMP280;61664;48.112;11.662;2023-12-20T07:03:09;95500.19;;;7.58
34310;BMP280;61664;48.112;11.662;2023-12-20T07:05:36;95507.00;;;7.59
34310;BMP280;61664;48.112;11.662;2023-12-20T07:08:04;95511.13;;;7.60
34310;BMP280;61664;48.112;11.662;2023-12-20T07:10:32;95516.28;;;7.55
34310;BMP280;61664;48.112;11.662;2023-12-20T07:12:59;95498.66;;;7.48
34310;BMP280;61664;48.112;11.662;2023-12-20T07:15:27;95518.22;;;7.54
34310;BMP280;61664;48.112;11.662;2023-12-20T07:17:56;95524.91;;;7.46
34310;BMP280;61664;48.112;11.662;2023-12-20T07:20:23;95535.13;;;7.48
34310;BMP280;61664;48.112;11.662;2023-12-20T07:22:50;95541.50;;;7.50
34310;BMP280;61664;48.112;11.662;2023-12-20T07:25:17;95545.59;;;7.42
34310;BMP280;61664;48.112;11.662;2023-12-20T07:27:44;95546.50;;;7.48
34310;BMP280;61664;48.112;11.662;2023-12-20T07:30:12;95537.47;;;7.46
34310;BMP280;61664;48.112;11.662;2023-12-20T07:32:39;95547.91;;;7.53
34310;BMP280;61664;48.112;11.662;2023-12-20T07:35:07;95548.72;;;7.50
34310;BMP280;61664;48.112;11.662;2023-12-20T07:37:34;95552.69;;;7.45
34310;BMP280;61664;48.112;11.662;2023-12-20T07:40:01;95553.41;;;7.46
34310;BMP280;61664;48.112;11.662;2023-12-20T07:42:28;95553.41;;;7.46
34310;BMP280;61664;48.112;11.662;2023-12-20T07:44:55;95552.06;;;7.41
34310;BMP280;61664;48.112;11.662;2023-12-20T07:47:22;95549.72;;;7.43
34310;BMP280;61664;48.112;11.662;2023-12-20T07:49:49;95548.84;;;7.46
34310;BMP280;61664;48.112;11.662;2023-12-20T07:52:18;95554.63;;;7.45
34310;BMP280;61664;48.112;11.662;2023-12-20T07:54:46;95550.75;;;7.46
34310;BMP280;61664;48.112;11.662;2023-12-20T07:57:13;95553.88;;;7.44
34310;BMP280;61664;48.112;11.662;2023-12-20T07:59:40;95548.34;;;7.39
34310;BMP280;61664;48.112;11.662;2023-12-20T08:02:07;95546.09;;;7.37
34310;BMP280;61664;48.112;11.662;2023-12-20T08:04:34;95551.72;;;7.39
34310;BMP280;61664;48.112;11.662;2023-12-20T08:07:01;95544.75;;;7.33
34310;BMP280;61664;48.112;11.662;2023-12-20T08:09:28;95563.53;;;7.38
34310;BMP280;61664;48.112;11.662;2023-12-20T08:11:55;95564.59;;;7.41
34310;BMP280;61664;48.112;11.662;2023-12-20T08:14:22;95566.28;;;7.47
34310;BMP280;61664;48.112;11.662;2023-12-20T08:16:49;95570.75;;;7.50
34310;BMP280;61664;48.112;11.662;2023-12-20T08:19:16;95573.41;;;7.50
34310;BMP280;61664;48.112;11.662;2023-12-20T08:21:43;95573.81;;;7.49
34310;BMP280;61664;48.112;11.662;2023-12-20T08:24:11;95560.97;;;7.47
34310;BMP280;61664;48.112;11.662;2023-12-20T08:26:37;95571.91;;;7.49
34310;BMP280;61664;48.112;11.662;2023-12-20T08:31:53;95571.91;;;7.49
34310;BMP280;61664;48.112;11.662;2023-12-20T08:34:21;95571.91;;;7.49
34310;BMP280;61664;48.112;11.662;2023-12-20T08:36:48;95578.41;;;7.48
34310;BMP280;61664;48.112;11.662;2023-12-20T08:39:15;95575.56;;;7.43
34310;BMP280;61664;48.112;11.662;2023-12-20T08:41:42;95575.16;;;7.44
34310;BMP280;61664;48.112;11.662;2023-12-20T08:44:09;95581.38;;;7.50
34310;BMP280;61664;48.112;11.662;2023-12-20T08:46:36;95579.28;;;7.45
34310;BMP280;61664;48.112;11.662;2023-12-20T08:49:03;95580.63;;;7.50
34310;BMP280;61664;48.112;11.662;2023-12-20T08:51:30;95585.53;;;7.51
34310;BMP280;61664;48.112;11.662;2023-12-20T08:53:57;95570.13;;;7.46
34310;BMP280;61664;48.112;11.662;2023-12-20T08:56:24;95584.38;;;7.52
34310;BMP280;61664;48.112;11.662;2023-12-20T08:58:51;95581.13;;;7.57
34310;BMP280;61664;48.112;11.662;2023-12-20T09:01:18;95579.47;;;7.51
34310;BMP280;61664;48.112;11.662;2023-12-20T09:03:45;95583.38;;;7.59
34310;BMP280;61664;48.112;11.662;2023-12-20T09:06:12;95584.53;;;7.58
34310;BMP280;61664;48.112;11.662;2023-12-20T09:08:39;95585.72;;;7.57
34310;BMP280;61664;48.112;11.662;2023-12-20T09:11:06;95584.44;;;7.62
34310;BMP280;61664;48.112;11.662;2023-12-20T09:13:34;95567.94;;;7.67
34310;BMP280;61664;48.112;11.662;2023-12-20T09:16:01;95575.88;;;7.79
34310;BMP280;61664;48.112;11.662;2023-12-20T09:18:28;95566.28;;;7.82
34310;BMP280;61664;48.112;11.662;2023-12-20T09:20:55;95567.78;;;7.83
34310;BMP280;61664;48.112;11.662;2023-12-20T09:23:22;95566.91;;;7.86
34310;BMP280;61664;48.112;11.662;2023-12-20T09:25:49;95573.78;;;7.96
34310;BMP280;61664;48.112;11.662;2023-12-20T09:28:16;95579.72;;;8.00
34310;BMP280;61664;48.112;11.662;2023-12-20T09:30:43;95572.28;;;7.95
34310;BMP280;61664;48.112;11.662;2023-12-20T09:33:12;95567.28;;;7.97
34310;BMP280;61664;48.112;11.662;2023-12-20T09:35:39;95576.19;;;8.03
34310;BMP280;61664;48.112;11.662;2023-12-20T09:38:06;95595.63;;;8.13
34310;BMP280;61664;48.112;11.662;2023-12-20T09:40:36;95573.72;;;8.09
34310;BMP280;61664;48.112;11.662;2023-12-20T09:43:11;95579.22;;;8.14
34310;BMP280;61664;48.112;11.662;2023-12-20T09:45:41;95583.38;;;8.15
34310;BMP280;61664;48.112;11.662;2023-12-20T09:48:11;95584.25;;;8.12
34310;BMP280;61664;48.112;11.662;2023-12-20T09:50:38;95570.63;;;8.10
34310;BMP280;61664;48.112;11.662;2023-12-20T09:53:08;95577.88;;;8.10
34310;BMP280;61664;48.112;11.662;2023-12-20T09:55:36;95565.31;;;8.10
34310;BMP280;61664;48.112;11.662;2023-12-20T09:58:04;95563.50;;;8.07
34310;BMP280;61664;48.112;11.662;2023-12-20T10:00:32;95570.63;;;8.10
34310;BMP280;61664;48.112;11.662;2023-12-20T10:03:00;95574.16;;;8.07
34310;BMP280;61664;48.112;11.662;2023-12-20T10:05:30;95566.47;;;8.09
34310;BMP280;61664;48.112;11.662;2023-12-20T10:07:59;95561.59;;;8.08
34310;BMP280;61664;48.112;11.662;2023-12-20T10:10:27;95558.56;;;8.18
34310;BMP280;61664;48.112;11.662;2023-12-20T10:13:11;95561.25;;;8.28
34310;BMP280;61664;48.112;11.662;2023-12-20T10:15:38;95556.59;;;8.32
34310;BMP280;61664;48.112;11.662;2023-12-20T10:18:06;95570.53;;;8.45
34310;BMP280;61664;48.112;11.662;2023-12-20T10:20:34;95564.97;;;8.52
34310;BMP280;61664;48.112;11.662;2023-12-20T10:23:01;95560.38;;;8.52
34310;BMP280;61664;48.112;11.662;2023-12-20T10:25:28;95544.22;;;8.47
34310;BMP280;61664;48.112;11.662;2023-12-20T10:28:15;95543.34;;;8.50
34310;BMP280;61664;48.112;11.662;2023-12-20T10:30:48;95551.06;;;8.57
34310;BMP280;61664;48.112;11.662;2023-12-20T10:33:27;95551.22;;;8.53
34310;BMP280;61664;48.112;11.662;2023-12-20T10:35:55;95553.28;;;8.59
34310;BMP280;61664;48.112;11.662;2023-12-20T10:38:23;95550.19;;;8.60
34310;BMP280;61664;48.112;11.662;2023-12-20T10:40:56;95545.00;;;8.56
34310;BMP280;61664;48.112;11.662;2023-12-20T10:43:30;95545.72;;;8.57
34310;BMP280;61664;48.112;11.662;2023-12-20T10:45:58;95534.22;;;8.60
34310;BMP280;61664;48.112;11.662;2023-12-20T10:48:26;95539.25;;;8.67
34310;BMP280;61664;48.112;11.662;2023-12-20T10:50:58;95535.72;;;8.70
34310;BMP280;61664;48.112;11.662;2023-12-20T10:53:25;95545.59;;;8.61
34310;BMP280;61664;48.112;11.662;2023-12-20T10:55:55;95518.34;;;8.56
34310;BMP280;61664;48.112;11.662;2023-12-20T10:58:25;95538.69;;;8.63
34310;BMP280;61664;48.112;11.662;2023-12-20T11:01:00;95537.03;;;8.66
34310;BMP280;61664;48.112;11.662;2023-12-20T11:03:35;95529.63;;;8.61
34310;BMP280;61664;48.112;11.662;2023-12-20T11:14:49;95535.56;;;8.65
34310;BMP280;61664;48.112;11.662;2023-12-20T11:17:16;95522.94;;;8.56
34310;BMP280;61664;48.112;11.662;2023-12-20T11:22:26;95512.25;;;8.47
34310;BMP280;61664;48.112;11.662;2023-12-20T11:24:53;95525.03;;;8.52
34310;BMP280;61664;48.112;11.662;2023-12-20T11:27:24;95521.72;;;8.48
34310;BMP280;61664;48.112;11.662;2023-12-20T11:29:58;95493.44;;;8.32
34310;BMP280;61664;48.112;11.662;2023-12-20T11:34:58;95520.72;;;8.54
34310;BMP280;61664;48.112;11.662;2023-12-20T11:37:40;95523.56;;;8.60
34310;BMP280;61664;48.112;11.662;2023-12-20T11:40:16;95514.06;;;8.59
34310;BMP280;61664;48.112;11.662;2023-12-20T11:42:51;95519.34;;;8.72
34310;BMP280;61664;48.112;11.662;2023-12-20T11:45:21;95505.56;;;8.73
34310;BMP280;61664;48.112;11.662;2023-12-20T11:47:53;95506.03;;;8.81
34310;BMP280;61664;48.112;11.662;2023-12-20T11:50:22;95508.09;;;8.86
34310;BMP280;61664;48.112;11.662;2023-12-20T11:52:51;95502.63;;;8.89
34310;BMP280;61664;48.112;11.662;2023-12-20T11:55:19;95498.63;;;8.94
34310;BMP280;61664;48.112;11.662;2023-12-20T11:57:46;95494.78;;;8.95
34310;BMP280;61664;48.112;11.662;2023-12-20T12:00:14;95501.06;;;9.01
34310;BMP280;61664;48.112;11.662;2023-12-20T12:02:41;95504.03;;;9.12
34310;BMP280;61664;48.112;11.662;2023-12-20T12:05:11;95503.41;;;9.17
34310;BMP280;61664;48.112;11.662;2023-12-20T12:07:39;95495.56;;;9.14
34310;BMP280;61664;48.112;11.662;2023-12-20T12:10:06;95497.50;;;9.23
34310;BMP280;61664;48.112;11.662;2023-12-20T12:12:35;95498.09;;;9.27
34310;BMP280;61664;48.112;11.662;2023-12-20T12:15:02;95497.34;;;9.26
34310;BMP280;61664;48.112;11.662;2023-12-20T12:17:30;95498.97;;;9.24
34310;BMP280;61664;48.112;11.662;2023-12-20T12:20:06;95485.81;;;9.11
34310;BMP280;61664;48.112;11.662;2023-12-20T12:22:34;95498.22;;;9.14
34310;BMP280;61664;48.112;11.662;2023-12-20T12:25:13;95488.16;;;9.09
34310;BMP280;61664;48.112;11.662;2023-12-20T12:27:42;95492.75;;;9.08
34310;BMP280;61664;48.112;11.662;2023-12-20T12:30:10;95488.16;;;9.09
34310;BMP280;61664;48.112;11.662;2023-12-20T12:32:39;95481.34;;;9.08
34310;BMP280;61664;48.112;11.662;2023-12-20T12:35:08;95470.56;;;9.11
34310;BMP280;61664;48.112;11.662;2023-12-20T12:37:39;95469.81;;;9.11
34310;BMP280;61664;48.112;11.662;2023-12-20T12:40:12;95467.28;;;9.07
34310;BMP280;61664;48.112;11.662;2023-12-20T12:42:41;95463.31;;;9.03
34310;BMP280;61664;48.112;11.662;2023-12-20T12:45:10;95455.88;;;8.98
34310;BMP280;61664;48.112;11.662;2023-12-20T12:47:39;95462.38;;;9.06
34310;BMP280;61664;48.112;11.662;2023-12-20T12:50:06;95460.75;;;9.08
34310;BMP280;61664;48.112;11.662;2023-12-20T12:52:34;95466.09;;;9.08
34310;BMP280;61664;48.112;11.662;2023-12-20T12:55:02;95473.34;;;9.08
34310;BMP280;61664;48.112;11.662;2023-12-20T12:57:32;95456.31;;;8.96
34310;BMP280;61664;48.112;11.662;2023-12-20T13:00:00;95458.97;;;8.96
34310;BMP280;61664;48.112;11.662;2023-12-20T13:02:27;95472.47;;;9.02
34310;BMP280;61664;48.112;11.662;2023-12-20T13:04:54;95472.47;;;9.02
34310;BMP280;61664;48.112;11.662;2023-12-20T13:07:21;95452.91;;;8.96
34310;BMP280;61664;48.112;11.662;2023-12-20T13:12:15;95470.22;;;9.00
34310;BMP280;61664;48.112;11.662;2023-12-20T13:14:42;95456.31;;;8.96
34310;BMP280;61664;48.112;11.662;2023-12-20T13:17:09;95453.63;;;8.96
34310;BMP280;61664;48.112;11.662;2023-12-20T13:19:39;95452.00;;;8.89
34310;BMP280;61664;48.112;11.662;2023-12-20T13:22:06;95466.06;;;8.90
34310;BMP280;61664;48.112;11.662;2023-12-20T13:24:34;95477.78;;;8.83
34310;BMP280;61664;48.112;11.662;2023-12-20T13:27:00;95478.94;;;8.73
34310;BMP280;61664;48.112;11.662;2023-12-20T13:29:27;95486.28;;;8.69
34310;BMP280;61664;48.112;11.662;2023-12-20T13:31:54;95489.09;;;8.66
34310;BMP280;61664;48.112;11.662;2023-12-20T13:34:21;95500.19;;;8.64
34310;BMP280;61664;48.112;11.662;2023-12-20T13:36:49;95479.88;;;8.48
34310;BMP280;61664;48.112;11.662;2023-12-20T13:41:44;95495.22;;;8.44
34310;BMP280;61664;48.112;11.662;2023-12-20T13:44:12;95492.84;;;8.37
34310;BMP280;61664;48.112;11.662;2023-12-20T13:46:40;95499.50;;;8.33
34310;BMP280;61664;48.112;11.662;2023-12-20T13:49:07;95495.59;;;8.24
34310;BMP280;61664;48.112;11.662;2023-12-20T13:51:35;95491.75;;;8.26
34310;BMP280;61664;48.112;11.662;2023-12-20T13:54:02;95503.28;;;8.22
34310;BMP280;61664;48.112;11.662;2023-12-20T13:56:29;95496.03;;;8.23
34310;BMP280;61664;48.112;11.662;2023-12-20T13:58:56;95496.78;;;8.23
34310;BMP280;61664;48.112;11.662;2023-12-20T14:01:23;95478.53;;;8.13
34310;BMP280;61664;48.112;11.662;2023-12-20T14:03:50;95483.41;;;8.14
34310;BMP280;61664;48.112;11.662;2023-12-20T14:06:17;95488.31;;;8.16
34310;BMP280;61664;48.112;11.662;2023-12-20T14:08:44;95490.22;;;8.15
34310;BMP280;61664;48.112;11.662;2023-12-20T14:11:11;95490.53;;;8.17
34310;BMP280;61664;48.112;11.662;2023-12-20T14:13:40;95498.41;;;8.21
34310;BMP280;61664;48.112;11.662;2023-12-20T14:16:07;95506.69;;;8.23
34310;BMP280;61664;48.112;11.662;2023-12-20T14:18:34;95512.75;;;8.23
34310;BMP280;61664;48.112;11.662;2023-12-20T14:21:01;95507.06;;;8.12
34310;BMP280;61664;48.112;11.662;2023-12-20T14:23:28;95522.66;;;8.23
34310;BMP280;61664;48.112;11.662;2023-12-20T14:25:54;95512.00;;;8.23
34310;BMP280;61664;48.112;11.662;2023-12-20T14:28:23;95518.69;;;8.28
34310;BMP280;61664;48.112;11.662;2023-12-20T14:30:50;95512.75;;;8.23